Time;durP1;ratioP1;P1;durP2;ratioP2;P2;SDS_P1;SDS_P2;PMS_P1;PMS_P2;Temp;Humidity;BMP_temperature;BMP_pressure;BME280_temperature;BME280_humidity;BME280_pressure;Samples;Min_cycle;Max_cycle;Signal;HPM_P1;HPM_P2
2022/12/27 00:02:04;;;;;;;0.80;0.80;;;;;;;;;;5010408;28;20045;-84
2022/12/27 00:04:32;;;;;;;1.33;0.90;;;;;;;;;;5014978;28;20343;-84
2022/12/27 00:06:59;;;;;;;1.65;0.90;;;;;;;;;;5006722;28;20056;-83
2022/12/27 00:09:27;;;;;;;2.45;0.98;;;;;;;;;;5006675;28;20044;-83
2022/12/27 00:11:54;;;;;;;0.70;0.70;;;;;;;;;;5018114;28;20550;-83
2022/12/27 00:14:26;;;;;;;2.85;0.80;;;;;;;;;;5018698;28;20041;-83
2022/12/27 00:16:53;;;;;;;0.77;0.77;;;;;;;;;;4995420;28;20570;-83
2022/12/27 00:19:21;;;;;;;0.73;0.73;;;;;;;;;;5011689;28;20045;-83
2022/12/27 00:21:48;;;;;;;0.90;0.80;;;;;;;;;;5044929;28;20045;-83
2022/12/27 00:24:16;;;;;;;0.95;0.90;;;;;;;;;;4991375;28;20855;-83
2022/12/27 00:26:43;;;;;;;0.80;0.80;;;;;;;;;;5008478;28;20060;-84
2022/12/27 00:29:10;;;;;;;0.80;0.80;;;;;;;;;;5012730;28;20233;-83
2022/12/27 00:31:38;;;;;;;2.08;0.95;;;;;;;;;;5012077;28;20045;-84
2022/12/27 00:34:06;;;;;;;0.80;0.80;;;;;;;;;;5009913;28;20061;-83
2022/12/27 00:36:34;;;;;;;0.73;0.73;;;;;;;;;;5015317;28;20176;-83
2022/12/27 00:39:02;;;;;;;0.88;0.77;;;;;;;;;;4996808;28;20052;-83
2022/12/27 00:41:30;;;;;;;1.40;0.70;;;;;;;;;;5007498;28;20048;-84
2022/12/27 00:43:57;;;;;;;0.98;0.65;;;;;;;;;;5041718;28;20048;-83
2022/12/27 00:46:24;;;;;;;0.52;0.50;;;;;;;;;;5001752;28;20041;-83
2022/12/27 00:48:52;;;;;;;7.88;7.28;;;;;;;;;;5017001;28;20144;-82
2022/12/27 00:51:21;;;;;;;0.40;0.40;;;;;;;;;;5024692;28;20052;-83
2022/12/27 00:53:49;;;;;;;0.55;0.55;;;;;;;;;;5006941;28;20670;-84
2022/12/27 00:56:18;;;;;;;0.73;0.70;;;;;;;;;;4990294;28;20041;-84
2022/12/27 00:58:46;;;;;;;0.68;0.68;;;;;;;;;;5015717;28;20055;-83
2022/12/27 01:01:18;;;;;;;0.60;0.60;;;;;;;;;;5044160;28;20213;-84
2022/12/27 01:03:46;;;;;;;0.50;0.50;;;;;;;;;;5006368;28;20048;-84
2022/12/27 01:06:15;;;;;;;1.65;0.70;;;;;;;;;;5009317;28;20057;-84
2022/12/27 01:08:42;;;;;;;0.82;0.50;;;;;;;;;;5009497;28;20122;-83
2022/12/27 01:11:10;;;;;;;1.75;0.50;;;;;;;;;;5059251;28;20041;-84
2022/12/27 01:13:38;;;;;;;0.60;0.60;;;;;;;;;;5011860;28;20437;-83
2022/12/27 01:16:10;;;;;;;1.10;0.47;;;;;;;;;;5027224;28;20049;-84
2022/12/27 01:18:38;;;;;;;0.70;0.70;;;;;;;;;;5025010;28;20045;-84
2022/12/27 01:21:07;;;;;;;4.63;0.70;;;;;;;;;;5007853;28;20053;-84
2022/12/27 01:23:34;;;;;;;1.63;0.77;;;;;;;;;;5028275;28;20048;-84
2022/12/27 01:26:03;;;;;;;0.70;0.70;;;;;;;;;;5012118;28;20114;-84
2022/12/27 01:28:30;;;;;;;0.70;0.70;;;;;;;;;;5025328;28;20045;-83
2022/12/27 01:30:58;;;;;;;1.45;0.70;;;;;;;;;;5015045;28;20120;-83
2022/12/27 01:33:25;;;;;;;1.15;0.70;;;;;;;;;;4992711;28;20053;-84
2022/12/27 01:35:52;;;;;;;0.77;0.77;;;;;;;;;;5034136;28;20052;-83
2022/12/27 01:38:20;;;;;;;1.42;0.80;;;;;;;;;;5025131;28;20179;-84
2022/12/27 01:40:47;;;;;;;0.80;0.80;;;;;;;;;;5010656;28;20412;-83
2022/12/27 01:43:16;;;;;;;0.75;0.75;;;;;;;;;;5028162;28;20037;-84
2022/12/27 01:45:44;;;;;;;0.63;0.63;;;;;;;;;;5022478;28;20044;-83
2022/12/27 01:48:14;;;;;;;1.40;0.70;;;;;;;;;;5011292;28;20053;-83
2022/12/27 01:50:44;;;;;;;1.58;0.95;;;;;;;;;;5024208;28;20147;-84
2022/12/27 01:53:11;;;;;;;1.20;0.90;;;;;;;;;;5006003;28;20073;-83
2022/12/27 01:55:45;;;;;;;0.80;0.80;;;;;;;;;;4989706;28;20353;-83
2022/12/27 01:58:34;;;;;;;1.63;0.85;;;;;;;;;;4989754;28;20145;-83
2022/12/27 02:01:03;;;;;;;0.80;0.80;;;;;;;;;;5036066;28;20051;-83
2022/12/27 02:03:33;;;;;;;0.80;0.73;;;;;;;;;;5040700;28;20044;-83
2022/12/27 02:06:01;;;;;;;0.90;0.90;;;;;;;;;;5014101;28;20045;-83
2022/12/27 02:08:32;;;;;;;4.25;0.80;;;;;;;;;;5031866;28;20061;-83
2022/12/27 02:11:00;;;;;;;3.85;0.80;;;;;;;;;;4988781;28;20038;-83
2022/12/27 02:13:28;;;;;;;1.08;0.90;;;;;;;;;;4998831;28;20053;-83
2022/12/27 02:15:56;;;;;;;0.50;0.50;;;;;;;;;;5004899;28;20122;-83
2022/12/27 02:18:23;;;;;;;1.85;0.70;;;;;;;;;;5020932;28;20048;-83
2022/12/27 02:21:04;;;;;;;1.17;0.80;;;;;;;;;;4989674;28;20053;-82
2022/12/27 02:26:43;;;;;;;1.77;1.65;;;;;;;;;;5003772;28;20423;-82
2022/12/27 02:29:17;;;;;;;0.93;0.88;;;;;;;;;;5023816;28;20095;-83
2022/12/27 02:31:57;;;;;;;8.63;8.07;;;;;;;;;;5012115;28;20054;-82
2022/12/27 02:34:28;;;;;;;2.25;0.52;;;;;;;;;;4999238;28;20633;-83
2022/12/27 02:37:00;;;;;;;0.50;0.50;;;;;;;;;;5039592;28;20053;-82
2022/12/27 02:39:30;;;;;;;0.60;0.60;;;;;;;;;;5033538;28;20073;-82
2022/12/27 02:53:45;;;;;;;1.98;0.45;;;;;;;;;;5060996;28;20370;-82
2022/12/27 02:59:24;;;;;;;0.40;0.40;;;;;;;;;;5033438;28;20436;-82
2022/12/27 03:04:41;;;;;;;1.20;0.40;;;;;;;;;;5011821;28;20125;-83
2022/12/27 03:07:11;;;;;;;0.75;0.50;;;;;;;;;;5025474;28;20490;-83
2022/12/27 03:18:25;;;;;;;0.75;0.40;;;;;;;;;;5059061;28;20108;-82
2022/12/27 03:26:28;;;;;;;0.52;0.50;;;;;;;;;;5003766;28;20069;-82
2022/12/27 03:34:38;;;;;;;1.38;0.60;;;;;;;;;;5057760;28;20037;-79
2022/12/27 03:40:03;;;;;;;1.43;0.60;;;;;;;;;;5019672;28;20063;-81
2022/12/27 03:45:20;;;;;;;1.05;0.52;;;;;;;;;;5027249;28;20064;-81
2022/12/27 03:47:53;;;;;;;0.85;0.60;;;;;;;;;;5060312;28;20055;-81
2022/12/27 03:50:29;;;;;;;2.55;0.65;;;;;;;;;;5057710;28;20072;-81
2022/12/27 03:53:09;;;;;;;0.52;0.52;;;;;;;;;;5019770;28;20063;-81
2022/12/27 03:55:37;;;;;;;0.47;0.40;;;;;;;;;;5016472;28;20056;-81
2022/12/27 03:58:04;;;;;;;0.70;0.70;;;;;;;;;;4990119;28;20281;-81
2022/12/27 04:00:32;;;;;;;0.32;0.32;;;;;;;;;;5048817;22;20048;-81
2022/12/27 04:03:03;;;;;;;1.75;0.60;;;;;;;;;;5055041;28;20037;-84
2022/12/27 04:05:30;;;;;;;1.03;0.67;;;;;;;;;;5031868;28;20041;-84
2022/12/27 04:35:47;;;;;;;2.60;0.88;;;;;;;;;;5049390;28;20048;-83
2022/12/27 04:38:15;;;;;;;2.05;0.52;;;;;;;;;;5045219;28;20048;-83
2022/12/27 04:54:55;;;;;;;1.48;0.73;;;;;;;;;;5034637;28;20052;-83
2022/12/27 04:57:22;;;;;;;0.70;0.70;;;;;;;;;;5053940;28;20128;-83
2022/12/27 05:02:38;;;;;;;0.70;0.70;;;;;;;;;;5036331;28;20057;-84
2022/12/27 05:05:07;;;;;;;0.93;0.60;;;;;;;;;;5071055;28;20470;-84
2022/12/27 05:15:55;;;;;;;0.95;0.70;;;;;;;;;;5053562;28;20063;-83
2022/12/27 05:18:23;;;;;;;1.48;0.70;;;;;;;;;;5064920;28;20139;-83
2022/12/27 05:20:51;;;;;;;1.75;1.30;;;;;;;;;;5045513;28;20044;-83
2022/12/27 05:26:05;;;;;;;1.77;1.30;;;;;;;;;;5074543;28;20401;-83
2022/12/27 05:28:35;;;;;;;1.10;1.00;;;;;;;;;;5053969;28;20044;-82
2022/12/27 05:31:02;;;;;;;1.38;1.10;;;;;;;;;;5064450;28;20497;-84
2022/12/27 05:33:31;;;;;;;0.80;0.80;;;;;;;;;;5055343;28;20048;-82
2022/12/27 05:35:59;;;;;;;1.00;0.90;;;;;;;;;;5052639;28;20075;-83
2022/12/27 05:38:29;;;;;;;0.93;0.70;;;;;;;;;;5051728;28;20064;-83
2022/12/27 05:40:57;;;;;;;3.92;0.90;;;;;;;;;;5059498;28;20045;-83
2022/12/27 05:43:25;;;;;;;1.00;0.70;;;;;;;;;;5064120;28;20037;-84
2022/12/27 05:45:52;;;;;;;0.60;0.60;;;;;;;;;;5076560;28;20060;-83
2022/12/27 05:48:20;;;;;;;2.83;2.72;;;;;;;;;;5057771;28;20044;-83
2022/12/27 05:50:47;;;;;;;0.80;0.80;;;;;;;;;;5030607;28;20047;-84
2022/12/27 05:53:14;;;;;;;1.52;0.75;;;;;;;;;;5050684;28;20045;-84
2022/12/27 05:55:42;;;;;;;1.67;0.57;;;;;;;;;;5048407;28;20095;-84
2022/12/27 05:58:09;;;;;;;1.27;0.70;;;;;;;;;;5067301;28;20088;-83
2022/12/27 06:00:36;;;;;;;2.28;0.82;;;;;;;;;;5063189;28;20041;-84
2022/12/27 06:03:04;;;;;;;0.80;0.73;;;;;;;;;;5041996;28;20103;-83
2022/12/27 06:05:31;;;;;;;0.98;0.55;;;;;;;;;;5048141;28;20048;-83
2022/12/27 06:07:58;;;;;;;0.68;0.68;;;;;;;;;;5063067;28;20271;-84
2022/12/27 06:10:26;;;;;;;1.02;0.60;;;;;;;;;;5065511;28;20036;-82
2022/12/27 06:12:53;;;;;;;0.80;0.80;;;;;;;;;;5063127;28;20068;-83
2022/12/27 06:15:20;;;;;;;3.97;0.90;;;;;;;;;;5047836;28;20506;-83
2022/12/27 06:17:47;;;;;;;0.90;0.90;;;;;;;;;;5062319;28;20048;-81
2022/12/27 06:20:15;;;;;;;0.70;0.70;;;;;;;;;;5078791;28;20042;-83
2022/12/27 06:22:42;;;;;;;2.78;0.82;;;;;;;;;;5076518;28;20090;-85
2022/12/27 06:25:10;;;;;;;3.63;1.00;;;;;;;;;;5028426;28;20079;-83
2022/12/27 06:27:40;;;;;;;0.98;0.90;;;;;;;;;;5056112;28;20105;-84
2022/12/27 06:30:10;;;;;;;1.27;0.90;;;;;;;;;;5049745;28;20078;-84
2022/12/27 06:32:38;;;;;;;1.63;0.85;;;;;;;;;;5061342;28;20227;-83
2022/12/27 06:35:06;;;;;;;0.70;0.70;;;;;;;;;;5069499;28;20101;-82
2022/12/27 06:37:36;;;;;;;3.20;0.60;;;;;;;;;;5060897;28;20036;-83
2022/12/27 06:40:03;;;;;;;1.77;0.88;;;;;;;;;;5063418;28;20518;-83
2022/12/27 06:42:30;;;;;;;3.70;3.50;;;;;;;;;;5045888;28;20087;-83
2022/12/27 06:44:58;;;;;;;3.15;1.17;;;;;;;;;;5043075;28;20052;-83
2022/12/27 06:47:25;;;;;;;2.25;1.17;;;;;;;;;;5069226;28;20537;-81
2022/12/27 06:49:52;;;;;;;1.70;1.60;;;;;;;;;;5067413;28;20048;-83
2022/12/27 06:52:22;;;;;;;2.55;2.35;;;;;;;;;;5051384;28;20166;-82
2022/12/27 06:54:49;;;;;;;3.13;2.65;;;;;;;;;;5071153;28;20056;-83
2022/12/27 06:57:16;;;;;;;6.15;3.60;;;;;;;;;;5040217;28;20045;-83
2022/12/27 06:59:43;;;;;;;9.75;5.32;;;;;;;;;;5041560;28;20045;-84
2022/12/27 07:02:18;;;;;;;8.75;4.90;;;;;;;;;;5044962;28;20037;-84
2022/12/27 07:04:46;;;;;;;4.85;3.53;;;;;;;;;;5044402;28;20076;-84
2022/12/27 07:07:13;;;;;;;6.25;3.47;;;;;;;;;;5059465;28;20037;-81
2022/12/27 07:09:42;;;;;;;4.88;3.90;;;;;;;;;;5071076;28;20048;-83
2022/12/27 07:12:09;;;;;;;4.05;3.00;;;;;;;;;;5069943;28;20040;-82
2022/12/27 07:14:37;;;;;;;5.32;3.88;;;;;;;;;;5070393;28;20041;-83
2022/12/27 07:17:04;;;;;;;7.68;4.72;;;;;;;;;;5067751;28;20507;-83
2022/12/27 07:19:31;;;;;;;6.32;4.60;;;;;;;;;;5051373;28;20057;-83
2022/12/27 07:21:58;;;;;;;6.78;4.30;;;;;;;;;;5069780;28;20036;-83
2022/12/27 07:24:26;;;;;;;6.45;3.88;;;;;;;;;;5048196;28;20447;-83
2022/12/27 07:26:53;;;;;;;6.57;4.35;;;;;;;;;;5063575;28;20040;-82
2022/12/27 07:29:22;;;;;;;5.35;4.18;;;;;;;;;;5068401;28;20459;-83
2022/12/27 07:31:49;;;;;;;5.30;4.35;;;;;;;;;;5046828;28;20044;-82
2022/12/27 07:34:16;;;;;;;4.85;4.30;;;;;;;;;;5064687;28;20087;-81
2022/12/27 07:36:44;;;;;;;6.20;3.95;;;;;;;;;;5066073;28;20036;-83
2022/12/27 07:39:13;;;;;;;3.83;3.42;;;;;;;;;;5070504;28;20477;-82
2022/12/27 07:41:41;;;;;;;4.25;3.40;;;;;;;;;;5060913;28;20124;-84
2022/12/27 07:44:09;;;;;;;4.55;3.30;;;;;;;;;;5053288;28;20115;-81
2022/12/27 07:46:36;;;;;;;3.13;2.83;;;;;;;;;;5048952;28;20048;-83
2022/12/27 07:49:04;;;;;;;3.25;2.95;;;;;;;;;;5049580;28;20094;-82
2022/12/27 07:51:31;;;;;;;5.07;3.40;;;;;;;;;;5034079;28;20077;-83
2022/12/27 07:53:59;;;;;;;8.20;6.05;;;;;;;;;;5055176;28;20059;-82
2022/12/27 07:56:26;;;;;;;6.95;4.63;;;;;;;;;;5065394;28;20048;-82
2022/12/27 07:58:57;;;;;;;4.82;3.63;;;;;;;;;;5067970;28;20044;-82
2022/12/27 08:01:26;;;;;;;5.15;3.50;;;;;;;;;;5045525;28;20049;-82
2022/12/27 08:03:57;;;;;;;6.13;3.30;;;;;;;;;;5025608;28;20055;-81
2022/12/27 08:06:29;;;;;;;4.10;2.58;;;;;;;;;;5048536;28;20075;-82
2022/12/27 08:08:57;;;;;;;3.35;2.50;;;;;;;;;;5065837;28;20047;-83
2022/12/27 08:11:28;;;;;;;2.90;2.50;;;;;;;;;;5034870;28;20037;-83
2022/12/27 08:13:56;;;;;;;2.72;2.05;;;;;;;;;;5071248;28;20052;-82
2022/12/27 08:16:24;;;;;;;2.17;1.92;;;;;;;;;;5052567;28;20041;-82
2022/12/27 08:18:52;;;;;;;3.42;2.22;;;;;;;;;;5053922;28;20040;-82
2022/12/27 08:21:22;;;;;;;4.43;2.03;;;;;;;;;;5070589;28;20036;-82
2022/12/27 08:23:50;;;;;;;2.58;2.10;;;;;;;;;;5055067;28;20513;-82
2022/12/27 08:26:17;;;;;;;3.58;2.50;;;;;;;;;;5039322;28;20029;-83
2022/12/27 08:28:44;;;;;;;3.80;2.55;;;;;;;;;;5035634;28;20056;-82
2022/12/27 08:31:13;;;;;;;3.10;2.63;;;;;;;;;;5064300;28;20052;-82
2022/12/27 08:33:41;;;;;;;10.32;3.80;;;;;;;;;;5046658;28;20067;-82
2022/12/27 08:36:09;;;;;;;3.92;3.20;;;;;;;;;;5045878;28;20041;-82
2022/12/27 08:38:57;;;;;;;4.95;2.78;;;;;;;;;;5055341;28;20090;-82
2022/12/27 08:41:24;;;;;;;3.65;3.35;;;;;;;;;;5074039;28;20569;-82
2022/12/27 08:43:54;;;;;;;9.90;6.47;;;;;;;;;;5066319;28;20043;-82
2022/12/27 08:46:21;;;;;;;4.60;3.70;;;;;;;;;;5050608;28;20033;-83
2022/12/27 08:48:49;;;;;;;3.80;2.20;;;;;;;;;;5040988;28;20060;-83
2022/12/27 08:51:17;;;;;;;3.22;2.85;;;;;;;;;;5069218;28;20551;-82
2022/12/27 08:53:59;;;;;;;3.70;2.95;;;;;;;;;;5054290;28;20052;-84
2022/12/27 08:56:26;;;;;;;6.47;2.50;;;;;;;;;;5044737;28;20076;-83
2022/12/27 08:58:53;;;;;;;6.53;2.20;;;;;;;;;;5064446;28;20132;-82
2022/12/27 09:01:21;;;;;;;3.50;2.33;;;;;;;;;;5062131;28;20072;-83
2022/12/27 09:03:48;;;;;;;5.00;2.55;;;;;;;;;;5053989;28;20043;-82
2022/12/27 09:06:17;;;;;;;2.15;2.05;;;;;;;;;;5069078;28;20036;-83
2022/12/27 09:08:46;;;;;;;2.88;2.25;;;;;;;;;;5071888;28;20143;-83
2022/12/27 09:11:24;;;;;;;2.20;2.00;;;;;;;;;;5053707;28;20040;-83
2022/12/27 09:13:52;;;;;;;2.58;2.03;;;;;;;;;;5070630;28;20095;-81
2022/12/27 09:16:23;;;;;;;3.30;1.85;;;;;;;;;;5071039;28;20060;-82
2022/12/27 09:18:51;;;;;;;6.60;2.35;;;;;;;;;;5052883;28;20044;-82
2022/12/27 09:21:20;;;;;;;3.42;2.45;;;;;;;;;;5052500;28;20079;-82
2022/12/27 09:23:48;;;;;;;3.40;2.03;;;;;;;;;;5039651;28;20067;-83
2022/12/27 09:26:17;;;;;;;5.88;2.53;;;;;;;;;;5036751;28;20512;-81
2022/12/27 09:28:45;;;;;;;2.42;2.22;;;;;;;;;;5055704;28;20428;-81
2022/12/27 09:31:13;;;;;;;3.50;2.20;;;;;;;;;;5067982;28;20044;-83
2022/12/27 09:33:40;;;;;;;2.10;1.88;;;;;;;;;;5043062;28;20121;-83
2022/12/27 09:36:09;;;;;;;2.13;1.92;;;;;;;;;;5062610;28;20455;-83
2022/12/27 09:38:37;;;;;;;2.13;2.00;;;;;;;;;;5043936;28;20041;-83
2022/12/27 09:41:06;;;;;;;2.17;1.83;;;;;;;;;;5071329;28;20044;-82
2022/12/27 09:43:53;;;;;;;3.03;2.05;;;;;;;;;;5071889;28;20114;-83
2022/12/27 09:46:24;;;;;;;1.88;1.77;;;;;;;;;;5054640;28;20076;-83
2022/12/27 09:48:54;;;;;;;2.42;2.10;;;;;;;;;;5051852;28;20084;-83
2022/12/27 09:51:25;;;;;;;3.28;2.65;;;;;;;;;;5066639;28;20178;-83
2022/12/27 09:53:52;;;;;;;7.10;3.92;;;;;;;;;;5051640;28;20044;-84
2022/12/27 09:56:24;;;;;;;5.05;3.60;;;;;;;;;;5036470;28;20040;-83
2022/12/27 09:59:27;;;;;;;5.53;3.08;;;;;;;;;;5069802;28;20127;-83
2022/12/27 10:01:54;;;;;;;17.33;13.23;;;;;;;;;;5054803;28;20055;-83
2022/12/27 10:04:22;;;;;;;4.28;3.28;;;;;;;;;;5071592;28;20094;-83
2022/12/27 10:06:49;;;;;;;3.83;2.70;;;;;;;;;;5070833;28;20039;-83
2022/12/27 10:09:26;;;;;;;6.60;2.80;;;;;;;;;;5052253;28;20053;-83
2022/12/27 10:12:15;;;;;;;6.97;2.90;;;;;;;;;;5053260;28;20072;-82
2022/12/27 10:14:42;;;;;;;5.55;2.13;;;;;;;;;;5070770;28;20583;-82
2022/12/27 10:17:33;;;;;;;4.50;1.60;;;;;;;;;;5052378;28;20277;-84
2022/12/27 10:20:19;;;;;;;1.95;1.48;;;;;;;;;;5035496;28;20040;-83
2022/12/27 10:22:48;;;;;;;1.92;1.70;;;;;;;;;;5070166;28;20045;-83
2022/12/27 10:25:18;;;;;;;2.17;1.98;;;;;;;;;;5068339;28;20098;-82
2022/12/27 10:27:46;;;;;;;4.70;1.55;;;;;;;;;;5072972;28;20041;-81
2022/12/27 10:30:15;;;;;;;3.95;1.58;;;;;;;;;;5055696;28;20036;-84
2022/12/27 10:32:43;;;;;;;2.85;1.60;;;;;;;;;;5058303;28;20040;-83
2022/12/27 10:35:13;;;;;;;4.93;1.00;;;;;;;;;;5038153;28;20106;-83
2022/12/27 10:37:40;;;;;;;2.38;1.05;;;;;;;;;;5059753;28;20036;-82
2022/12/27 10:40:13;;;;;;;3.42;1.30;;;;;;;;;;5078690;28;20087;-82
2022/12/27 10:42:47;;;;;;;3.40;0.98;;;;;;;;;;5053546;28;20051;-84
2022/12/27 10:45:38;;;;;;;29.33;26.77;;;;;;;;;;5070282;28;20063;-81
2022/12/27 10:48:13;;;;;;;2.60;1.20;;;;;;;;;;5086864;28;20619;-82
2022/12/27 10:50:45;;;;;;;55.72;51.22;;;;;;;;;;5061742;28;20048;-82
2022/12/27 10:53:33;;;;;;;2.00;0.90;;;;;;;;;;5087071;28;20052;-83
2022/12/27 10:56:08;;;;;;;5.35;5.00;;;;;;;;;;5074409;28;20044;-83
2022/12/27 10:58:59;;;;;;;2.55;2.45;;;;;;;;;;5063168;28;20048;-81
2022/12/27 11:01:28;;;;;;;1.10;1.00;;;;;;;;;;5061963;28;20056;-83
2022/12/27 11:04:09;;;;;;;1.20;1.15;;;;;;;;;;5076266;28;20263;-81
2022/12/27 11:06:47;;;;;;;4.88;3.78;;;;;;;;;;5058433;28;20040;-83
2022/12/27 11:09:34;;;;;;;1.52;1.05;;;;;;;;;;5074629;28;20102;-82
2022/12/27 11:12:12;;;;;;;3.22;1.67;;;;;;;;;;5056534;28;20051;-82
2022/12/27 11:14:52;;;;;;;1.73;1.10;;;;;;;;;;5074781;28;20045;-82
2022/12/27 11:17:22;;;;;;;1.00;0.80;;;;;;;;;;5074783;28;20048;-83
2022/12/27 11:19:50;;;;;;;1.02;0.70;;;;;;;;;;5074632;28;20085;-82
2022/12/27 11:22:17;;;;;;;2.33;1.08;;;;;;;;;;5075163;28;20106;-83
2022/12/27 11:24:46;;;;;;;2.92;1.20;;;;;;;;;;5040861;28;20497;-82
2022/12/27 11:27:20;;;;;;;1.50;1.10;;;;;;;;;;5039069;28;20055;-82
2022/12/27 11:29:48;;;;;;;2.70;1.00;;;;;;;;;;5073392;28;20056;-84
2022/12/27 11:32:15;;;;;;;1.13;0.88;;;;;;;;;;5072418;28;20045;-83
2022/12/27 11:34:45;;;;;;;106.95;98.65;;;;;;;;;;5037518;28;20124;-83
2022/12/27 11:37:15;;;;;;;1.50;0.73;;;;;;;;;;5054209;28;20335;-82
2022/12/27 11:39:43;;;;;;;2.17;2.08;;;;;;;;;;5054285;28;20044;-82
2022/12/27 11:42:21;;;;;;;1.92;1.35;;;;;;;;;;5072198;28;20383;-83
2022/12/27 11:45:09;;;;;;;1.77;0.82;;;;;;;;;;5071878;28;20044;-82
2022/12/27 11:47:39;;;;;;;1.00;0.90;;;;;;;;;;5027330;28;20130;-83
2022/12/27 11:50:17;;;;;;;2.90;1.17;;;;;;;;;;5071846;28;20044;-83
2022/12/27 11:53:03;;;;;;;1.33;0.80;;;;;;;;;;5071422;28;20048;-83
2022/12/27 11:55:51;;;;;;;5.00;1.42;;;;;;;;;;5072938;28;20493;-82
2022/12/27 11:58:23;;;;;;;1.98;1.20;;;;;;;;;;5019270;28;20059;-82
2022/12/27 12:00:50;;;;;;;36.95;33.90;;;;;;;;;;5041397;28;20131;-82
2022/12/27 12:03:21;;;;;;;2.70;1.13;;;;;;;;;;5090965;28;20048;-81
2022/12/27 12:05:48;;;;;;;6.95;6.43;;;;;;;;;;5075157;28;20041;-82
2022/12/27 12:08:15;;;;;;;4.25;1.17;;;;;;;;;;5057260;28;20110;-81
2022/12/27 12:11:01;;;;;;;3.95;2.38;;;;;;;;;;5075018;28;20098;-83
2022/12/27 12:13:37;;;;;;;2.08;1.10;;;;;;;;;;5056941;28;20149;-83
2022/12/27 12:16:17;;;;;;;2.17;1.02;;;;;;;;;;5073393;28;20048;-81
2022/12/27 12:18:53;;;;;;;2.80;0.80;;;;;;;;;;5073046;28;20051;-82
2022/12/27 12:21:24;;;;;;;1.48;0.85;;;;;;;;;;5073047;28;20490;-81
2022/12/27 12:24:00;;;;;;;1.55;1.08;;;;;;;;;;5055478;28;20048;-81
2022/12/27 12:26:52;;;;;;;1.30;1.20;;;;;;;;;;5055996;28;20052;-82
2022/12/27 12:29:25;;;;;;;1.42;1.27;;;;;;;;;;5093125;28;20079;-81
2022/12/27 12:32:11;;;;;;;3.72;1.20;;;;;;;;;;5079101;28;20533;-80
2022/12/27 12:34:41;;;;;;;1.90;1.38;;;;;;;;;;5075324;28;20045;-82
2022/12/27 12:37:34;;;;;;;3.58;1.08;;;;;;;;;;5056342;28;20645;-82
2022/12/27 12:40:11;;;;;;;7.80;3.22;;;;;;;;;;5074746;28;20033;-81
2022/12/27 12:42:53;;;;;;;1.33;0.80;;;;;;;;;;5076512;28;20099;-81
2022/12/27 12:45:31;;;;;;;2.25;1.58;;;;;;;;;;5076305;28;20402;-81
2022/12/27 12:48:05;;;;;;;7.50;1.60;;;;;;;;;;5075335;28;20036;-82
2022/12/27 12:50:51;;;;;;;1.30;0.95;;;;;;;;;;5075489;28;20056;-82
2022/12/27 12:53:22;;;;;;;2.90;1.10;;;;;;;;;;5075830;28;20100;-82
2022/12/27 12:55:58;;;;;;;2.42;1.10;;;;;;;;;;5076105;28;20045;-83
2022/12/27 12:58:57;;;;;;;3.97;1.00;;;;;;;;;;5058796;28;20071;-82
2022/12/27 13:01:29;;;;;;;2.35;1.00;;;;;;;;;;5032995;28;20420;-83
2022/12/27 13:04:05;;;;;;;3.45;3.13;;;;;;;;;;5076584;28;20036;-82
2022/12/27 13:06:46;;;;;;;2.90;1.70;;;;;;;;;;5077627;28;20151;-82
2022/12/27 13:09:32;;;;;;;2.60;1.35;;;;;;;;;;5076563;28;20063;-82
2022/12/27 13:12:16;;;;;;;2.65;1.25;;;;;;;;;;5076518;28;20044;-81
2022/12/27 13:15:10;;;;;;;3.85;1.70;;;;;;;;;;5057660;28;20044;-87
2022/12/27 13:18:15;;;;;;;1.70;1.00;;;;;;;;;;5053977;28;20056;-80
2022/12/27 13:20:49;;;;;;;0.75;0.60;;;;;;;;;;4971487;28;20054;-81
2022/12/27 13:23:31;;;;;;;2.33;0.90;;;;;;;;;;5061132;28;20051;-83
2022/12/27 13:26:08;;;;;;;1.35;1.13;;;;;;;;;;5075250;28;20457;-82
2022/12/27 13:28:54;;;;;;;1.80;1.48;;;;;;;;;;5072950;28;20140;-82
2022/12/27 13:31:34;;;;;;;8.55;7.10;;;;;;;;;;5073210;28;20051;-82
2022/12/27 13:34:01;;;;;;;1.08;1.08;;;;;;;;;;5072933;28;20486;-82
2022/12/27 13:36:51;;;;;;;2.80;1.23;;;;;;;;;;5073131;28;20635;-82
2022/12/27 13:39:41;;;;;;;6.18;1.48;;;;;;;;;;5072149;28;20044;-81
2022/12/27 13:42:28;;;;;;;1.88;1.27;;;;;;;;;;5060072;28;20110;-81
2022/12/27 13:44:55;;;;;;;2.83;1.38;;;;;;;;;;5054788;28;20490;-82
2022/12/27 13:47:58;;;;;;;1.73;1.20;;;;;;;;;;5072135;28;20470;-82
2022/12/27 13:50:36;;;;;;;1.30;1.20;;;;;;;;;;4969781;28;20058;-81
2022/12/27 13:53:23;;;;;;;3.60;1.80;;;;;;;;;;5059852;28;20428;-82
2022/12/27 13:56:14;;;;;;;1.23;1.05;;;;;;;;;;5031122;28;20045;-81
2022/12/27 13:59:09;;;;;;;2.40;1.50;;;;;;;;;;5025390;28;20111;-81
2022/12/27 14:01:55;;;;;;;2.05;1.33;;;;;;;;;;5056434;28;20105;-80
2022/12/27 14:04:46;;;;;;;4.47;2.08;;;;;;;;;;5055165;28;20048;-79
2022/12/27 14:07:25;;;;;;;1.40;1.30;;;;;;;;;;5022989;28;20068;-82
2022/12/27 14:10:02;;;;;;;4.45;1.55;;;;;;;;;;5054018;28;20090;-82
2022/12/27 14:12:52;;;;;;;1.33;1.23;;;;;;;;;;5035383;28;20053;-81
2022/12/27 14:15:22;;;;;;;1.55;1.20;;;;;;;;;;5052438;28;20060;-82
2022/12/27 14:18:02;;;;;;;4.18;1.40;;;;;;;;;;5033419;28;20041;-82
2022/12/27 14:20:48;;;;;;;1.50;1.10;;;;;;;;;;5051208;28;20033;-82
2022/12/27 14:23:28;;;;;;;1.23;1.10;;;;;;;;;;5053987;28;20041;-81
2022/12/27 14:26:08;;;;;;;4.07;1.20;;;;;;;;;;5035236;28;20064;-82
2022/12/27 14:28:45;;;;;;;3.72;1.27;;;;;;;;;;5052816;28;20055;-82
2022/12/27 14:31:33;;;;;;;2.63;2.35;;;;;;;;;;5052831;28;20063;-82
2022/12/27 14:34:19;;;;;;;5.80;1.63;;;;;;;;;;5053330;28;20284;-82
2022/12/27 14:36:49;;;;;;;2.25;1.25;;;;;;;;;;5034427;28;20052;-83
2022/12/27 14:39:32;;;;;;;2.03;1.20;;;;;;;;;;5034046;28;20041;-82
2022/12/27 14:42:19;;;;;;;3.05;2.08;;;;;;;;;;5053977;28;20045;-82
2022/12/27 14:45:08;;;;;;;6.82;3.38;;;;;;;;;;5024441;28;20063;-82
2022/12/27 14:47:43;;;;;;;6.00;3.45;;;;;;;;;;5049977;28;20051;-82
2022/12/27 14:50:29;;;;;;;9.98;3.85;;;;;;;;;;5050644;28;20049;-82
2022/12/27 14:53:14;;;;;;;9.10;3.83;;;;;;;;;;5062662;28;20063;-82
2022/12/27 14:55:48;;;;;;;5.28;3.70;;;;;;;;;;5053505;28;20057;-81
2022/12/27 14:58:24;;;;;;;5.70;4.03;;;;;;;;;;5070946;28;20052;-81
2022/12/27 15:01:12;;;;;;;7.30;4.72;;;;;;;;;;5070297;28;20040;-79
2022/12/27 15:04:01;;;;;;;9.70;4.60;;;;;;;;;;5003633;28;20060;-81
2022/12/27 15:06:38;;;;;;;5.90;3.88;;;;;;;;;;5056029;28;20044;-82
2022/12/27 15:09:10;;;;;;;4.97;3.53;;;;;;;;;;5063858;28;20055;-83
2022/12/27 15:11:37;;;;;;;;;;;;;;;;;;5071196;28;20040;-82
2022/12/27 15:14:07;;;;;;;18.52;8.70;;;;;;;;;;5053295;28;19998;-82
2022/12/27 15:16:49;;;;;;;53.95;23.00;;;;;;;;;;5071096;28;20040;-82
2022/12/27 15:19:19;;;;;;;61.95;27.33;;;;;;;;;;5070277;28;20059;-81
2022/12/27 15:21:46;;;;;;;65.20;29.15;;;;;;;;;;5069925;28;20049;-83
2022/12/27 15:24:25;;;;;;;86.68;36.72;;;;;;;;;;5069853;28;20094;-83
2022/12/27 15:26:58;;;;;;;84.28;37.97;;;;;;;;;;5069864;28;20037;-81
2022/12/27 15:29:25;;;;;;;77.07;35.05;;;;;;;;;;5070026;28;20064;-81
2022/12/27 15:32:03;;;;;;;31.23;17.13;;;;;;;;;;5058285;28;20047;-80
2022/12/27 15:34:39;;;;;;;11.85;7.78;;;;;;;;;;5078867;28;20554;-80
2022/12/27 15:37:27;;;;;;;10.25;6.97;;;;;;;;;;5076762;28;20086;-82
2022/12/27 15:39:54;;;;;;;10.00;6.97;;;;;;;;;;5082650;28;20341;-81
2022/12/27 15:42:34;;;;;;;8.70;6.25;;;;;;;;;;5074853;28;20490;-80
2022/12/27 15:45:11;;;;;;;10.55;6.22;;;;;;;;;;5073577;28;20048;-81
2022/12/27 15:47:56;;;;;;;14.57;7.18;;;;;;;;;;5079041;28;20106;-81
2022/12/27 15:50:27;;;;;;;16.13;9.95;;;;;;;;;;5065693;28;20098;-81
2022/12/27 15:52:55;;;;;;;14.73;8.67;;;;;;;;;;5073654;28;20048;-82
2022/12/27 15:55:41;;;;;;;11.98;7.40;;;;;;;;;;5073823;28;20116;-81
2022/12/27 15:58:19;;;;;;;7.80;5.40;;;;;;;;;;5082994;28;20127;-83
2022/12/27 16:01:24;;;;;;;6.68;4.03;;;;;;;;;;5078720;22;20052;-87
2022/12/27 16:03:53;;;;;;;5.97;4.43;;;;;;;;;;4974200;28;20542;-86
2022/12/27 16:06:33;;;;;;;6.18;4.32;;;;;;;;;;5027564;28;20515;-86
2022/12/27 16:09:19;;;;;;;5.45;3.50;;;;;;;;;;5016630;28;20584;-87
2022/12/27 16:11:59;;;;;;;4.97;3.10;;;;;;;;;;5033066;28;20037;-86
2022/12/27 16:14:29;;;;;;;4.70;3.00;;;;;;;;;;5016863;28;20075;-87
2022/12/27 16:17:15;;;;;;;2.70;2.47;;;;;;;;;;5016669;28;20092;-86
2022/12/27 16:19:57;;;;;;;5.45;3.80;;;;;;;;;;5032957;28;20103;-86
2022/12/27 16:22:27;;;;;;;3.03;2.72;;;;;;;;;;5034480;28;20064;-86
2022/12/27 16:24:54;;;;;;;3.97;2.90;;;;;;;;;;4999815;28;20041;-86
2022/12/27 16:27:28;;;;;;;4.00;2.45;;;;;;;;;;5034298;28;20049;-87
2022/12/27 16:29:55;;;;;;;4.85;3.05;;;;;;;;;;5031934;28;20069;-86
2022/12/27 16:32:24;;;;;;;4.63;3.28;;;;;;;;;;5033665;28;20057;-85
2022/12/27 16:34:54;;;;;;;3.33;3.03;;;;;;;;;;5000058;28;20045;-86
2022/12/27 16:37:27;;;;;;;3.40;3.10;;;;;;;;;;5032910;28;20053;-88
2022/12/27 16:40:03;;;;;;;4.93;3.78;;;;;;;;;;5034059;28;20031;-87
2022/12/27 16:43:00;;;;;;;6.50;5.05;;;;;;;;;;5033149;28;20067;-87
2022/12/27 16:45:42;;;;;;;10.32;5.95;;;;;;;;;;5018955;28;20140;-88
2022/12/27 16:48:29;;;;;;;6.95;4.85;;;;;;;;;;5036237;28;20048;-84
2022/12/27 16:50:56;;;;;;;10.43;7.18;;;;;;;;;;5003381;28;20084;-86
2022/12/27 16:53:35;;;;;;;10.32;7.38;;;;;;;;;;5004522;28;20060;-86
2022/12/27 16:56:15;;;;;;;13.25;9.65;;;;;;;;;;5064241;22;20104;-82
2022/12/27 16:58:43;;;;;;;8.85;7.13;;;;;;;;;;5049253;28;20057;-82